CYDACYMA

Guest
Details From CYDA - DAWSON CITY
To CYMA - MAYO
Flight Number -
Tags generated
Created
Modified
Stats Distance 90 nm / 167 km
Max Altitude 200 ft / 61 m
Waypoints 3
Social Downloads 0
Likes 0
Share VATSIM

Download

Looking for another format? Having issues loading an existing format? Contact us
Advertisement - Login to hide

Notes

Basic altitude profile: - Ascent Rate: 2500ft/min - Ascent Speed: 250kts - Cruise Altitude: 35000ft - Cruise Speed: 420kts - Descent Rate: 1500ft/min - Descent Speed: 250kts Options: - Use NATs: yes - Use PACOTS: yes - Use low airways: yes - Use high airways: yes

Route

CYDA MA CYMA

ID Type Via Altitude Latitude Longitude Leg Dist Tot Dist Heading (true) Name
O CYDA APT - 0 ft / 0 m 64.04306˚ -139.12778˚ - 0 nm - DAWSON CITY
MA NDB - 200 ft / 61 m 63.62861˚ -135.89306˚ 89 nm 89 nm 105° / 108° MAYO NDB
O CYMA APT - 0 ft / 0 m 63.61639˚ -135.86833˚ 0 nm 90 nm 138° / 138° MAYO

Altitude Profile

Advertisement - Login to hide

CYDA

Details ICAO CYDA (YDA)
Name DAWSON CITY
Region Canada
Timezone America/Whitehorse (UTC-7.0)
Stats Elevation 1,215 ft / 370 m (AMSL)
Location 64.043055° -139.127775°
Runways 1
Magnetic Variation 19.619° E

METAR

CYDA 262200Z 13003KT 030V130 20SM -SHRA OVC055CB 09/06 A2958 RMK CB8 SLP034 DENSITY ALT 1300FT

Decode

TAF

TAF AMD TAF AMD CYDA 262117Z 2621/2623 VRB03KT P6SM SCT020 BKN050 TEMPO 2621/2623 VRB15G25KT 5SM TSRA BR BKN020 BKN050CB RMK NXT FCST WILL BE ISSUED AT 271545Z

Decode

Departure Runways

ID Width Length Bearing (true) Bearing (mag) Surface Threshold Offset Overrun Length
02 100 ft / 30 m 4,943 ft / 1,507 m 48.97° 29.35° Gravel 0 ft / 0 m 0 ft / 0 m
20 100 ft / 30 m 4,943 ft / 1,507 m 229.00° 209.38° Gravel 0 ft / 0 m 0 ft / 0 m

CYMA

Details ICAO CYMA (YMA)
Name MAYO
Region Canada
Timezone America/Whitehorse (UTC-7.0)
Stats Elevation 1,653 ft / 504 m (AMSL)
Location 63.616388° -135.868334°
Runways 1
Magnetic Variation 20.102° E

METAR

CYMA 262200Z VRB04KT 20SM BKN055CB 15/M02 A2954 RMK CB5 SLP021 DENSITY ALT 2500FT

Decode

TAF

TAF AMD CYMA 262120Z 2621/2706 VRB03KT P6SM SCT050 BKN080 TEMPO 2621/2704 P6SM -SHRA VCTS SCT050CB BKN080 BECMG 2702/2704 05008KT RMK NXT FCST BY 270000Z

Decode

Destination Runways

ID Width Length Bearing (true) Bearing (mag) Surface Threshold Offset Overrun Length
06 100 ft / 30 m 4,839 ft / 1,475 m 89.71° 69.61° Gravel 0 ft / 0 m 0 ft / 0 m
24 100 ft / 30 m 4,839 ft / 1,475 m 269.74° 249.64° Gravel 0 ft / 0 m 0 ft / 0 m